createdAt,value
2022-12-08T00:01:09.573Z,6.87
2022-12-08T00:03:36.940Z,6.67
2022-12-08T00:06:52.087Z,7.20
2022-12-08T00:09:39.915Z,6.77
2022-12-08T00:12:12.353Z,12.00
2022-12-08T00:14:45.816Z,13.20
2022-12-08T00:17:16.251Z,7.93
2022-12-08T00:19:46.617Z,7.07
2022-12-08T00:22:16.628Z,10.03
2022-12-08T00:24:50.668Z,8.97
2022-12-08T00:27:20.978Z,17.47
2022-12-08T00:29:51.084Z,7.83
2022-12-08T00:32:21.716Z,8.13
2022-12-08T00:34:51.877Z,14.50
2022-12-08T00:37:22.014Z,10.40
2022-12-08T00:39:52.112Z,8.37
2022-12-08T00:42:26.439Z,8.17
2022-12-08T00:44:57.061Z,10.17
2022-12-08T00:47:27.245Z,10.10
2022-12-08T00:49:57.938Z,16.60
2022-12-08T00:52:28.194Z,14.73
2022-12-08T00:54:58.437Z,10.03
2022-12-08T00:57:29.055Z,10.10
2022-12-08T01:00:05.151Z,9.50
2022-12-08T01:02:35.458Z,9.60
2022-12-08T01:05:06.731Z,10.07
2022-12-08T01:07:41.677Z,10.00
2022-12-08T01:10:12.584Z,9.73
2022-12-08T01:12:43.184Z,9.50
2022-12-08T01:15:13.713Z,9.30
2022-12-08T01:17:44.117Z,9.80
2022-12-08T01:20:14.792Z,9.43
2022-12-08T01:22:45.245Z,10.80
2022-12-08T01:25:20.209Z,9.93
2022-12-08T01:27:51.900Z,9.07
2022-12-08T01:30:21.925Z,11.80
2022-12-08T01:32:52.275Z,10.17
2022-12-08T01:35:22.742Z,9.93
2022-12-08T01:37:53.396Z,11.10
2022-12-08T01:40:23.708Z,10.03
2022-12-08T01:42:57.596Z,11.50
2022-12-08T01:45:30.468Z,9.70
2022-12-08T01:48:07.142Z,11.90
2022-12-08T01:50:41.583Z,9.57
2022-12-08T01:53:15.322Z,13.80
2022-12-08T01:55:57.214Z,9.77
2022-12-08T01:58:27.249Z,8.87
2022-12-08T02:00:57.577Z,10.33
2022-12-08T02:03:37.923Z,12.23
2022-12-08T02:06:09.396Z,13.77
2022-12-08T02:08:40.925Z,9.73
2022-12-08T02:11:12.012Z,11.20
2022-12-08T02:13:49.999Z,12.43
2022-12-08T02:16:48.865Z,10.37
2022-12-08T02:19:50.229Z,9.93
2022-12-08T02:22:33.299Z,12.00
2022-12-08T02:25:19.270Z,14.53
2022-12-08T02:28:03.491Z,15.10
2022-12-08T02:30:47.035Z,10.37
2022-12-08T02:33:48.750Z,11.93
2022-12-08T02:36:47.708Z,14.43
2022-12-08T02:39:48.359Z,13.73
2022-12-08T02:42:24.327Z,11.27
2022-12-08T02:44:58.246Z,10.97
2022-12-08T02:47:30.340Z,16.30
2022-12-08T02:50:06.989Z,11.30
2022-12-08T02:52:40.249Z,11.63
2022-12-08T02:55:24.723Z,16.07
2022-12-08T02:58:25.922Z,11.47
2022-12-08T03:01:14.629Z,12.73
2022-12-08T03:04:10.240Z,14.50
2022-12-08T03:06:57.612Z,12.33
2022-12-08T03:09:56.098Z,15.20
2022-12-08T03:12:49.735Z,11.83
2022-12-08T03:15:25.293Z,11.90
2022-12-08T03:17:57.450Z,10.87
2022-12-08T03:20:29.589Z,14.77
2022-12-08T03:23:07.251Z,10.60
2022-12-08T03:25:41.553Z,10.20
2022-12-08T03:28:12.234Z,10.17
2022-12-08T03:30:48.293Z,13.13
2022-12-08T03:33:23.526Z,11.90
2022-12-08T03:35:54.946Z,9.33
2022-12-08T03:38:37.342Z,11.23
2022-12-08T03:41:19.448Z,9.80
2022-12-08T03:43:50.725Z,12.00
2022-12-08T03:48:48.850Z,10.47
2022-12-08T03:51:15.525Z,10.00
2022-12-08T03:53:41.730Z,9.73
2022-12-08T03:56:25.881Z,9.70
2022-12-08T03:58:52.885Z,9.90
2022-12-08T04:01:19.370Z,12.27
2022-12-08T04:03:52.827Z,9.80
2022-12-08T04:06:19.539Z,10.47
2022-12-08T04:08:45.748Z,9.33
2022-12-08T04:11:12.023Z,9.70
2022-12-08T04:13:46.161Z,10.03
2022-12-08T04:16:24.316Z,10.67
2022-12-08T04:18:50.710Z,11.27
2022-12-08T04:21:17.196Z,10.83
2022-12-08T04:23:46.217Z,10.63
2022-12-08T04:26:17.121Z,9.23
2022-12-08T04:28:47.369Z,10.50
2022-12-08T04:31:22.342Z,10.10
2022-12-08T04:33:52.266Z,10.27
2022-12-08T04:36:22.255Z,13.60
2022-12-08T04:38:52.456Z,9.90
2022-12-08T04:41:22.266Z,9.93
2022-12-08T04:43:51.803Z,10.73
2022-12-08T04:46:21.333Z,8.80
2022-12-08T04:48:54.953Z,10.23
2022-12-08T04:51:26.527Z,9.73
2022-12-08T04:53:54.504Z,10.83
2022-12-08T04:56:24.506Z,10.67
2022-12-08T04:58:54.510Z,13.60
2022-12-08T05:01:24.698Z,11.43
2022-12-08T05:03:54.076Z,8.77
2022-12-08T05:06:24.323Z,9.20
2022-12-08T05:08:54.418Z,12.40
2022-12-08T05:11:24.513Z,9.40
2022-12-08T05:13:54.838Z,10.93
2022-12-08T05:16:27.820Z,11.93
2022-12-08T05:18:58.043Z,12.27
2022-12-08T05:21:28.715Z,14.03
2022-12-08T05:23:58.576Z,12.63
2022-12-08T05:26:28.425Z,15.67
2022-12-08T05:28:58.075Z,14.50
2022-12-08T05:31:28.289Z,16.77
2022-12-08T05:34:03.397Z,13.00
2022-12-08T05:36:31.684Z,12.70
2022-12-08T05:39:01.428Z,14.93
2022-12-08T05:41:31.717Z,12.67
2022-12-08T05:44:02.094Z,15.63
2022-12-08T05:46:32.880Z,14.30
2022-12-08T05:49:02.921Z,12.90
2022-12-08T05:51:35.131Z,14.53
2022-12-08T05:54:05.314Z,12.47
2022-12-08T05:56:35.908Z,13.10
2022-12-08T05:59:06.440Z,13.47
2022-12-08T06:01:35.461Z,15.50
2022-12-08T06:04:05.218Z,16.20
2022-12-08T06:06:35.814Z,15.33
2022-12-08T06:09:06.297Z,13.90
2022-12-08T06:11:36.098Z,14.27
2022-12-08T06:14:10.228Z,12.67
2022-12-08T06:16:36.412Z,18.87
2022-12-08T06:19:09.480Z,18.53
2022-12-08T06:21:39.663Z,14.90
2022-12-08T06:24:09.712Z,14.27
2022-12-08T06:26:40.737Z,14.77
2022-12-08T06:29:10.191Z,17.57
2022-12-08T06:31:40.583Z,15.43
2022-12-08T06:34:10.348Z,16.57
2022-12-08T06:36:43.413Z,16.10
2022-12-08T06:39:13.532Z,16.80
2022-12-08T06:42:06.814Z,17.20
2022-12-08T06:44:37.340Z,15.80
2022-12-08T06:47:03.483Z,13.43
2022-12-08T06:49:29.656Z,17.10
2022-12-08T06:51:55.904Z,18.23
2022-12-08T06:54:26.583Z,15.37
2022-12-08T06:56:52.769Z,17.93
2022-12-08T06:59:20.014Z,17.40
2022-12-08T07:01:51.505Z,14.07
2022-12-08T07:04:21.790Z,15.73
2022-12-08T07:06:52.574Z,16.27
2022-12-08T07:09:22.818Z,20.33
2022-12-08T07:11:57.054Z,14.60
2022-12-08T07:14:27.399Z,14.43
2022-12-08T07:16:57.435Z,14.00
2022-12-08T07:19:28.788Z,17.50
2022-12-08T07:21:58.910Z,13.93
2022-12-08T07:24:29.681Z,15.90
2022-12-08T07:26:59.280Z,12.73
2022-12-08T07:29:32.729Z,11.23
2022-12-08T07:32:02.702Z,9.90
2022-12-08T07:34:32.949Z,10.03
2022-12-08T07:37:03.621Z,9.53
2022-12-08T07:39:33.859Z,10.27
2022-12-08T07:42:04.179Z,9.90
2022-12-08T07:44:33.975Z,10.40
2022-12-08T07:47:07.272Z,14.03
2022-12-08T07:49:37.013Z,10.10
2022-12-08T07:52:06.877Z,10.20
2022-12-08T07:54:36.816Z,8.83
2022-12-08T07:57:08.896Z,8.80
2022-12-08T07:59:37.124Z,7.30
2022-12-08T08:02:24.152Z,9.43
2022-12-08T08:04:56.606Z,9.30
2022-12-08T08:07:22.752Z,8.73
2022-12-08T08:09:48.901Z,8.73
2022-12-08T08:12:30.955Z,9.10
2022-12-08T08:14:59.145Z,11.90
2022-12-08T08:17:25.459Z,8.27
2022-12-08T08:19:51.716Z,10.60
2022-12-08T08:22:25.547Z,10.53
2022-12-08T08:24:52.008Z,9.00
2022-12-08T08:27:18.235Z,8.20
2022-12-08T08:29:44.395Z,8.60
2022-12-08T08:32:17.175Z,9.03
2022-12-08T08:34:46.933Z,10.60
2022-12-08T08:37:17.351Z,9.80
2022-12-08T08:39:47.164Z,7.77
2022-12-08T08:42:17.279Z,7.90
2022-12-08T08:44:47.003Z,7.70
2022-12-08T08:47:17.273Z,7.83
2022-12-08T08:49:51.274Z,7.83
2022-12-08T08:52:21.828Z,7.40
2022-12-08T08:54:51.192Z,7.57
2022-12-08T08:57:25.580Z,7.30
2022-12-08T08:59:52.824Z,7.00
2022-12-08T09:02:22.111Z,6.67
2022-12-08T09:04:52.570Z,7.37
2022-12-08T09:07:28.324Z,8.50
2022-12-08T09:10:01.880Z,7.47
2022-12-08T09:12:28.691Z,7.30
2022-12-08T09:15:01.092Z,6.40
2022-12-08T09:17:32.168Z,8.33
2022-12-08T09:20:02.452Z,7.23
2022-12-08T09:22:32.454Z,7.20
2022-12-08T09:25:04.575Z,7.33
2022-12-08T09:27:34.584Z,7.20
2022-12-08T09:30:05.718Z,6.13
2022-12-08T09:32:35.365Z,7.33
2022-12-08T09:35:05.124Z,7.40
2022-12-08T09:37:35.075Z,7.73
2022-12-08T09:40:06.779Z,7.40
2022-12-08T09:42:47.490Z,7.70
2022-12-08T09:45:15.537Z,6.53
2022-12-08T09:47:59.187Z,7.43
2022-12-08T09:50:40.561Z,7.37
2022-12-08T09:53:21.019Z,7.27
2022-12-08T09:55:55.290Z,7.10
2022-12-08T09:58:46.859Z,6.57
2022-12-08T10:01:21.165Z,6.37
2022-12-08T10:03:54.033Z,6.17
2022-12-08T10:06:49.165Z,6.93
2022-12-08T10:09:26.159Z,6.93
2022-12-08T10:12:20.670Z,6.00
2022-12-08T10:14:51.156Z,6.77
2022-12-08T10:17:25.568Z,19.50
2022-12-08T10:20:10.544Z,6.40
2022-12-08T10:22:42.832Z,6.97
2022-12-08T10:25:15.848Z,6.63
2022-12-08T10:27:48.282Z,7.13
2022-12-08T10:30:18.908Z,5.07
2022-12-08T10:32:47.564Z,7.13
2022-12-08T10:35:21.344Z,7.00
2022-12-08T10:37:56.639Z,6.30
2022-12-08T10:40:23.703Z,6.73
2022-12-08T10:42:55.142Z,5.93
2022-12-08T10:45:26.088Z,6.50
2022-12-08T10:48:04.406Z,5.77
2022-12-08T10:50:34.619Z,5.70
2022-12-08T10:53:11.685Z,4.97
2022-12-08T10:55:48.186Z,5.80
2022-12-08T10:58:33.388Z,6.00
2022-12-08T11:01:12.982Z,4.63
2022-12-08T11:03:57.020Z,4.97
2022-12-08T11:06:29.917Z,4.60
2022-12-08T11:09:17.109Z,4.53
2022-12-08T11:11:48.829Z,4.80
2022-12-08T11:14:27.798Z,4.50
2022-12-08T11:17:21.005Z,3.47
2022-12-08T11:20:00.327Z,5.97
2022-12-08T11:22:31.728Z,4.37
2022-12-08T11:25:19.637Z,4.30
2022-12-08T11:27:48.168Z,3.17
2022-12-08T11:30:27.946Z,3.30
2022-12-08T11:33:03.128Z,3.10
2022-12-08T11:35:37.014Z,3.33
2022-12-08T11:38:23.371Z,2.90
2022-12-08T11:41:04.034Z,3.10
2022-12-08T11:43:43.918Z,2.30
2022-12-08T11:46:24.461Z,2.87
2022-12-08T11:49:05.998Z,2.97
2022-12-08T11:51:40.090Z,2.10
2022-12-08T11:54:23.843Z,2.23
2022-12-08T11:57:02.524Z,1.63
2022-12-08T11:59:41.044Z,5.60
2022-12-08T12:02:30.494Z,5.10
2022-12-08T12:05:09.311Z,2.50
2022-12-08T12:07:47.325Z,3.00
2022-12-08T12:10:25.637Z,1.60
2022-12-08T12:13:13.552Z,1.40
2022-12-08T12:15:46.345Z,1.67
2022-12-08T12:18:22.937Z,2.53
2022-12-08T12:20:58.789Z,1.13
2022-12-08T12:23:35.862Z,1.10
2022-12-08T12:26:09.109Z,1.30
2022-12-08T12:28:52.384Z,1.20
2022-12-08T12:31:27.053Z,1.27
2022-12-08T12:34:19.967Z,1.30
2022-12-08T12:37:09.609Z,3.00
2022-12-08T12:40:00.394Z,0.90
2022-12-08T12:42:42.362Z,0.80
2022-12-08T12:45:16.592Z,0.90
2022-12-08T12:48:02.911Z,1.10
2022-12-08T12:50:44.837Z,0.80
2022-12-08T12:53:15.150Z,0.80
2022-12-08T12:55:58.454Z,0.80
2022-12-08T12:58:29.011Z,0.90
2022-12-08T13:01:07.913Z,0.90
2022-12-08T13:03:41.197Z,1.07
2022-12-08T13:06:14.834Z,0.80
2022-12-08T13:08:54.591Z,1.30
2022-12-08T13:11:25.755Z,1.00
2022-12-08T13:14:02.540Z,0.90
2022-12-08T13:16:37.028Z,1.53
2022-12-08T13:19:15.420Z,2.00
2022-12-08T13:21:46.303Z,0.90
2022-12-08T13:24:33.739Z,1.83
2022-12-08T13:27:04.269Z,1.20
2022-12-08T13:29:35.076Z,1.00
2022-12-08T13:32:09.000Z,1.10
2022-12-08T13:34:51.681Z,1.17
2022-12-08T13:37:27.887Z,1.03
2022-12-08T13:40:09.956Z,1.00
2022-12-08T13:42:41.995Z,0.90
2022-12-08T13:45:48.563Z,0.97
2022-12-08T13:48:52.307Z,0.80
2022-12-08T13:57:35.367Z,0.80
2022-12-08T14:00:14.333Z,1.20
2022-12-08T14:02:48.148Z,0.90
2022-12-08T14:05:19.147Z,0.90
2022-12-08T14:07:54.723Z,0.90
2022-12-08T14:10:31.329Z,2.27
2022-12-08T14:13:03.609Z,2.70
2022-12-08T14:15:38.427Z,1.60
2022-12-08T14:18:23.539Z,1.67
2022-12-08T14:21:21.394Z,2.80
2022-12-08T14:23:52.417Z,1.50
2022-12-08T14:26:33.999Z,2.00
2022-12-08T14:29:08.153Z,2.30
2022-12-08T14:31:39.640Z,5.53
2022-12-08T14:34:11.160Z,3.10
2022-12-08T14:36:41.757Z,3.23
2022-12-08T14:39:11.694Z,2.90
2022-12-08T14:41:59.761Z,3.30
2022-12-08T14:44:32.656Z,5.60
2022-12-08T14:47:08.984Z,3.00
2022-12-08T14:49:39.598Z,2.13
2022-12-08T14:52:10.815Z,2.27
2022-12-08T14:54:42.706Z,2.57
2022-12-08T14:57:16.846Z,2.40
2022-12-08T14:59:46.380Z,2.70
2022-12-08T15:02:24.911Z,2.63
2022-12-08T15:05:03.614Z,2.60
2022-12-08T15:07:33.805Z,2.70
2022-12-08T15:10:31.247Z,2.80
2022-12-08T15:13:08.120Z,2.20
2022-12-08T15:15:55.696Z,2.00
2022-12-08T15:18:40.060Z,2.13
2022-12-08T15:21:12.252Z,1.90
2022-12-08T15:23:48.769Z,2.60
2022-12-08T15:26:21.412Z,5.40
2022-12-08T15:28:52.823Z,2.00
2022-12-08T15:31:22.971Z,2.70
2022-12-08T15:33:53.343Z,1.37
2022-12-08T15:36:23.256Z,1.40
2022-12-08T15:38:58.259Z,1.33
2022-12-08T15:41:28.397Z,1.77
2022-12-08T15:43:59.319Z,1.10
2022-12-08T15:46:29.980Z,11.83
2022-12-08T15:49:01.549Z,9.40
2022-12-08T15:51:35.736Z,4.90
2022-12-08T15:54:06.344Z,2.97
2022-12-08T15:57:10.900Z,1.53
2022-12-08T15:59:32.966Z,1.73
2022-12-08T16:02:11.132Z,1.70
2022-12-08T16:07:27.767Z,2.20
2022-12-08T16:09:58.301Z,2.20
2022-12-08T16:16:00.704Z,3.50
2022-12-08T16:18:37.476Z,12.57
2022-12-08T16:21:22.715Z,11.17
2022-12-08T16:24:09.283Z,4.77
2022-12-08T16:29:25.527Z,5.83
2022-12-08T16:31:55.500Z,7.13
2022-12-08T16:34:21.592Z,4.27
2022-12-08T16:36:47.661Z,5.53
2022-12-08T16:39:13.934Z,3.93
2022-12-08T16:42:05.766Z,4.30
2022-12-08T16:44:31.807Z,3.77
2022-12-08T16:46:57.852Z,2.97
2022-12-08T16:49:30.691Z,2.90
2022-12-08T16:51:56.738Z,2.70
2022-12-08T16:54:22.783Z,2.33
2022-12-08T16:56:48.892Z,2.60
2022-12-08T16:59:23.466Z,2.27
2022-12-08T17:01:52.637Z,2.40
2022-12-08T17:04:31.370Z,2.43
2022-12-08T17:07:05.302Z,1.87
2022-12-08T17:09:31.687Z,2.50
2022-12-08T17:12:03.444Z,2.07
2022-12-08T17:14:33.284Z,1.37
2022-12-08T17:17:03.314Z,6.27
2022-12-08T17:19:29.450Z,3.27
2022-12-08T17:21:55.766Z,2.70
2022-12-08T17:24:28.376Z,2.90
2022-12-08T17:26:56.669Z,3.47
2022-12-08T17:29:26.209Z,5.83
2022-12-08T17:31:57.149Z,7.87
2022-12-08T17:34:28.239Z,6.57
2022-12-08T17:36:58.339Z,6.57
2022-12-08T17:39:28.876Z,6.43
2022-12-08T17:41:58.199Z,7.43
2022-12-08T17:44:29.268Z,6.53
2022-12-08T17:46:59.693Z,8.33
2022-12-08T17:49:30.450Z,6.57
2022-12-08T17:52:01.802Z,8.43
2022-12-08T17:54:30.556Z,8.13
2022-12-08T17:56:59.915Z,8.77
2022-12-08T17:59:30.797Z,10.57
2022-12-08T18:02:03.599Z,12.00
2022-12-08T18:04:32.615Z,8.63
2022-12-08T18:07:03.268Z,21.73
2022-12-08T18:09:33.241Z,12.40
2022-12-08T18:12:02.976Z,9.03
2022-12-08T18:14:32.699Z,8.93
2022-12-08T18:17:02.369Z,12.60
2022-12-08T18:19:36.066Z,10.87
2022-12-08T18:22:05.598Z,12.03
2022-12-08T18:24:35.490Z,12.60
2022-12-08T18:27:05.007Z,14.73
2022-12-08T18:29:34.604Z,18.37
2022-12-08T18:32:04.149Z,13.50
2022-12-08T18:34:34.186Z,11.00
2022-12-08T18:37:03.681Z,11.07
2022-12-08T18:39:33.305Z,16.00
2022-12-08T18:42:21.965Z,14.37
2022-12-08T18:44:57.922Z,18.27
2022-12-08T18:47:30.028Z,13.10
2022-12-08T18:49:56.180Z,12.67
2022-12-08T18:52:31.026Z,11.67
2022-12-08T18:55:06.833Z,12.63
2022-12-08T18:57:34.188Z,14.60
2022-12-08T19:00:01.666Z,15.00
2022-12-08T19:02:35.365Z,16.83
2022-12-08T19:05:06.873Z,14.13
2022-12-08T19:07:33.315Z,17.40
2022-12-08T19:09:59.548Z,12.53
2022-12-08T19:12:30.068Z,12.23
2022-12-08T19:14:59.281Z,15.73
2022-12-08T19:17:25.320Z,12.03
2022-12-08T19:19:51.442Z,12.20
2022-12-08T19:22:24.279Z,12.27
2022-12-08T19:24:50.325Z,18.47
2022-12-08T19:27:16.572Z,19.27
2022-12-08T19:29:42.684Z,16.97
2022-12-08T19:32:16.371Z,21.30
2022-12-08T19:34:42.472Z,26.63
2022-12-08T19:37:11.744Z,22.30
2022-12-08T19:39:57.305Z,19.60
2022-12-08T19:42:44.112Z,22.33
2022-12-08T19:45:15.778Z,26.43
2022-12-08T19:47:46.477Z,26.73
2022-12-08T19:50:35.401Z,22.70
2022-12-08T19:53:04.174Z,21.10
2022-12-08T19:55:34.818Z,25.37
2022-12-08T19:58:06.507Z,24.57
2022-12-08T20:00:37.902Z,25.43
2022-12-08T20:03:10.358Z,26.73
2022-12-08T20:05:42.286Z,24.37
2022-12-08T20:08:12.401Z,18.97
2022-12-08T20:10:47.401Z,20.33
2022-12-08T20:13:36.497Z,22.40
2022-12-08T20:16:07.656Z,19.33
2022-12-08T20:18:39.228Z,18.63
2022-12-08T20:21:11.556Z,14.83
2022-12-08T20:23:42.396Z,12.53
2022-12-08T20:26:18.196Z,15.07
2022-12-08T20:28:48.763Z,16.10
2022-12-08T20:31:24.322Z,21.77
2022-12-08T20:33:58.529Z,14.03
2022-12-08T20:36:29.294Z,14.73
2022-12-08T20:38:59.801Z,14.40
2022-12-08T20:41:33.678Z,13.83
2022-12-08T20:44:06.934Z,13.98
2022-12-08T20:46:38.032Z,14.00
2022-12-08T20:49:09.064Z,13.10
2022-12-08T20:51:40.884Z,12.67
2022-12-08T20:54:11.893Z,17.90
2022-12-08T20:56:48.055Z,15.23
2022-12-08T20:59:19.683Z,18.03
2022-12-08T21:01:48.479Z,18.77
2022-12-08T21:04:19.990Z,26.03
2022-12-08T21:06:48.085Z,22.47
2022-12-08T21:09:18.117Z,18.03
2022-12-08T21:11:47.836Z,20.00
2022-12-08T21:14:17.675Z,19.87
2022-12-08T21:16:53.695Z,22.47
2022-12-08T21:19:21.719Z,20.50
2022-12-08T21:21:50.437Z,17.90
2022-12-08T21:24:20.357Z,20.17
2022-12-08T21:26:49.883Z,16.27
2022-12-08T21:29:20.525Z,18.80
2022-12-08T21:31:49.668Z,17.00
2022-12-08T21:34:24.005Z,17.70
2022-12-08T21:36:52.860Z,16.90
2022-12-08T21:39:23.472Z,16.40
2022-12-08T21:42:11.410Z,15.83
2022-12-08T21:44:37.563Z,21.40
2022-12-08T21:47:04.303Z,26.50
2022-12-08T21:49:30.856Z,25.63
2022-12-08T21:52:00.364Z,14.23
2022-12-08T21:54:29.307Z,18.07
2022-12-08T21:56:59.092Z,17.27
2022-12-08T21:59:28.543Z,16.10
2022-12-08T22:01:58.646Z,18.87
2022-12-08T22:04:28.599Z,18.80
2022-12-08T22:06:58.407Z,20.20
2022-12-08T22:09:31.654Z,21.37
2022-12-08T22:12:01.250Z,20.43
2022-12-08T22:14:31.655Z,25.73
2022-12-08T22:17:01.697Z,23.77
2022-12-08T22:19:33.018Z,23.17
2022-12-08T22:22:02.771Z,23.90
2022-12-08T22:24:32.098Z,26.30
2022-12-08T22:27:05.217Z,25.40
2022-12-08T22:29:36.402Z,23.30
2022-12-08T22:32:06.539Z,21.73
2022-12-08T22:34:35.874Z,22.93
2022-12-08T22:37:05.385Z,24.43
2022-12-08T22:39:35.231Z,23.10
2022-12-08T22:42:04.914Z,26.90
2022-12-08T22:44:33.947Z,28.10
2022-12-08T22:47:04.288Z,26.13
2022-12-08T22:49:35.366Z,24.03
2022-12-08T22:52:04.187Z,26.37
2022-12-08T22:54:37.572Z,23.20
2022-12-08T22:57:06.782Z,22.73
2022-12-08T22:59:36.931Z,24.67
2022-12-08T23:02:07.973Z,19.27
2022-12-08T23:04:36.442Z,24.63
2022-12-08T23:07:05.687Z,19.90
2022-12-08T23:09:35.124Z,18.43
2022-12-08T23:12:08.615Z,23.67
2022-12-08T23:14:37.933Z,21.80
2022-12-08T23:17:07.710Z,21.60
2022-12-08T23:19:37.808Z,22.83
2022-12-08T23:22:07.188Z,22.90
2022-12-08T23:24:36.977Z,20.07
2022-12-08T23:27:06.633Z,17.07
2022-12-08T23:29:36.674Z,23.40
2022-12-08T23:32:06.413Z,21.17
2022-12-08T23:34:35.918Z,16.00
2022-12-08T23:37:05.883Z,17.20
2022-12-08T23:39:40.583Z,20.17
2022-12-08T23:42:10.117Z,19.90
2022-12-08T23:44:39.099Z,18.90
2022-12-08T23:47:08.654Z,20.40
2022-12-08T23:49:38.501Z,15.60
2022-12-08T23:52:11.406Z,17.53
2022-12-08T23:54:37.800Z,18.63
2022-12-08T23:57:08.472Z,15.60
2022-12-08T23:59:39.617Z,15.30
